Time;durP1;ratioP1;P1;durP2;ratioP2;P2;SDS_P1;SDS_P2;PMS_P1;PMS_P2;Temp;Humidity;BMP_temperature;BMP_pressure;BME280_temperature;BME280_humidity;BME280_pressure;Samples;Min_cycle;Max_cycle;Signal;HPM_P1;HPM_P2
2022/04/04 00:01:29;;;;;;;;;;;3.60;96.80;;;;;;5093889;28;19908;-82
2022/04/04 00:03:54;;;;;;;;;;;3.60;96.50;;;;;;5075398;28;19950;-83
2022/04/04 00:06:20;;;;;;;;;;;3.60;96.40;;;;;;5075410;28;19943;-82
2022/04/04 00:08:46;;;;;;;;;;;3.50;96.70;;;;;;5075378;28;19916;-82
2022/04/04 00:11:12;;;;;;;;;;;3.20;97.10;;;;;;5093553;28;19908;-83
2022/04/04 00:13:38;;;;;;;;;;;3.20;97.30;;;;;;5075353;28;19908;-84
2022/04/04 00:16:07;;;;;;;;;;;3.00;97.70;;;;;;5093496;28;20069;-83
2022/04/04 00:18:33;;;;;;;;;;;3.10;97.70;;;;;;5071755;28;19920;-82
2022/04/04 00:21:00;;;;;;;;;;;3.20;97.60;;;;;;5071831;28;19913;-82
2022/04/04 00:23:26;;;;;;;;;;;3.20;97.40;;;;;;5073183;28;19915;-82
2022/04/04 00:25:51;;;;;;;;;;;3.10;97.20;;;;;;5073367;28;20007;-82
2022/04/04 00:28:17;;;;;;;;;;;3.10;97.80;;;;;;5073489;28;19909;-82
2022/04/04 00:30:43;;;;;;;;;;;3.10;98.40;;;;;;5073120;28;20365;-83
2022/04/04 00:33:08;;;;;;;;;;;3.10;98.20;;;;;;5073326;28;19909;-85
2022/04/04 00:35:34;;;;;;;;;;;2.90;98.70;;;;;;5071787;28;19962;-83
2022/04/04 00:38:00;;;;;;;;;;;3.10;98.90;;;;;;5073198;28;19995;-82
2022/04/04 00:40:26;;;;;;;;;;;3.30;97.70;;;;;;5071669;28;19916;-84
2022/04/04 00:42:52;;;;;;;;;;;3.20;97.50;;;;;;5073021;28;19908;-83
2022/04/04 00:45:17;;;;;;;;;;;3.20;97.50;;;;;;5073016;28;19916;-82
2022/04/04 00:47:43;;;;;;;;;;;3.10;97.20;;;;;;5072983;28;19909;-83
2022/04/04 00:50:09;;;;;;;;;;;2.80;97.90;;;;;;5072955;28;19909;-83
2022/04/04 00:52:35;;;;;;;;;;;2.50;99.10;;;;;;5073064;28;19989;-84
2022/04/04 00:55:00;;;;;;;;;;;2.80;99.90;;;;;;5071553;28;19908;-82
2022/04/04 00:57:27;;;;;;;;;;;2.80;98.90;;;;;;5073740;28;20025;-85
2022/04/04 00:59:53;;;;;;;;;;;2.80;99.60;;;;;;5075039;28;20442;-84
2022/04/04 01:02:19;;;;;;;;;;;2.70;99.90;;;;;;5076581;28;19916;-82
2022/04/04 01:04:44;;;;;;;;;;;2.60;99.90;;;;;;5075070;28;20285;-84
2022/04/04 01:07:10;;;;;;;;;;;2.50;99.90;;;;;;5075012;28;19909;-86
2022/04/04 01:09:35;;;;;;;;;;;2.50;99.90;;;;;;5076285;28;19915;-85
2022/04/04 01:12:06;;;;;;;;;;;2.50;99.90;;;;;;5076190;28;20376;-84
2022/04/04 01:14:32;;;;;;;;;;;2.60;99.90;;;;;;5076180;28;19915;-84
2022/04/04 01:16:58;;;;;;;;;;;2.50;99.90;;;;;;5076123;28;19957;-83
2022/04/04 01:19:23;;;;;;;;;;;2.50;99.90;;;;;;5074575;28;20011;-81
2022/04/04 01:21:49;;;;;;;;;;;2.80;99.90;;;;;;5076489;28;20305;-82
2022/04/04 01:24:15;;;;;;;;;;;2.80;99.90;;;;;;5076121;28;19908;-82
2022/04/04 01:26:52;;;;;;;;;;;2.80;99.50;;;;;;5075947;28;20384;-81
2022/04/04 01:29:18;;;;;;;;;;;2.80;99.40;;;;;;5076125;28;19916;-83
2022/04/04 01:31:44;;;;;;;;;;;2.70;99.30;;;;;;5076229;28;19909;-82
2022/04/04 01:34:10;;;;;;;;;;;2.50;99.90;;;;;;5074554;28;19914;-82
2022/04/04 01:36:35;;;;;;;;;;;2.40;99.90;;;;;;5075800;28;20369;-85
2022/04/04 01:39:01;;;;;;;;;;;2.40;99.90;;;;;;5075725;28;20392;-81
2022/04/04 01:41:27;;;;;;;;;;;2.30;99.90;;;;;;5075618;28;19918;-83
2022/04/04 01:43:52;;;;;;;;;;;2.20;99.90;;;;;;5076025;28;19908;-82
2022/04/04 01:46:24;;;;;;;;;;;2.10;99.90;;;;;;5074286;28;19908;-84
2022/04/04 01:48:50;;;;;;;;;;;2.00;99.90;;;;;;5075734;28;19908;-81
2022/04/04 01:51:16;;;;;;;;;;;2.10;99.90;;;;;;5074123;28;19991;-84
2022/04/04 01:53:42;;;;;;;;;;;2.10;99.90;;;;;;5074172;28;19944;-82
2022/04/04 01:56:08;;;;;;;;;;;2.00;99.90;;;;;;5074032;28;19916;-83
2022/04/04 01:58:34;;;;;;;;;;;2.10;99.90;;;;;;5075445;28;19909;-82
2022/04/04 02:01:01;;;;;;;;;;;2.30;99.90;;;;;;5073919;28;19961;-83
2022/04/04 02:03:28;;;;;;;;;;;2.40;99.90;;;;;;5075207;28;19912;-82
2022/04/04 02:05:54;;;;;;;;;;;2.50;99.90;;;;;;5075145;28;19908;-81
2022/04/04 02:08:20;;;;;;;;;;;2.50;99.90;;;;;;5073419;28;19958;-83
2022/04/04 02:10:46;;;;;;;;;;;2.50;99.90;;;;;;5075112;28;19913;-83
2022/04/04 02:13:12;;;;;;;;;;;2.50;99.90;;;;;;5073720;28;19908;-83
2022/04/04 02:15:37;;;;;;;;;;;2.40;99.90;;;;;;5073647;28;19919;-83
2022/04/04 02:18:03;;;;;;;;;;;2.30;99.90;;;;;;5073410;28;19923;-85
2022/04/04 02:20:29;;;;;;;;;;;2.20;99.90;;;;;;5075172;28;19912;-83
2022/04/04 02:22:54;;;;;;;;;;;2.10;99.90;;;;;;5074791;28;19917;-81
2022/04/04 02:25:20;;;;;;;;;;;2.00;99.90;;;;;;5074860;28;19908;-84
2022/04/04 02:27:46;;;;;;;;;;;2.00;99.90;;;;;;5074990;28;19908;-82
2022/04/04 02:30:11;;;;;;;;;;;2.00;99.90;;;;;;5075076;28;19912;-82
2022/04/04 02:32:37;;;;;;;;;;;2.00;99.90;;;;;;5073291;28;19916;-84
2022/04/04 02:35:03;;;;;;;;;;;2.10;99.90;;;;;;5074664;28;19997;-84
2022/04/04 02:37:29;;;;;;;;;;;2.10;99.90;;;;;;5073262;28;20373;-84
2022/04/04 02:39:54;;;;;;;;;;;2.20;99.90;;;;;;5073155;28;19919;-84
2022/04/04 02:42:20;;;;;;;;;;;2.10;99.90;;;;;;5074496;28;19916;-84
2022/04/04 02:44:46;;;;;;;;;;;1.90;99.90;;;;;;5074420;28;20285;-84
2022/04/04 02:47:12;;;;;;;;;;;1.80;99.90;;;;;;5073055;28;20405;-83
2022/04/04 02:49:38;;;;;;;;;;;1.60;99.90;;;;;;5073026;28;19908;-84
2022/04/04 02:52:03;;;;;;;;;;;1.60;99.90;;;;;;5074517;28;19908;-82
2022/04/04 02:54:29;;;;;;;;;;;1.70;99.90;;;;;;5074328;28;20319;-84
2022/04/04 02:56:54;;;;;;;;;;;1.80;99.90;;;;;;5074460;28;19991;-83
2022/04/04 02:59:20;;;;;;;;;;;1.90;99.90;;;;;;5072825;28;19913;-83
2022/04/04 03:01:48;;;;;;;;;;;2.10;99.90;;;;;;5072802;28;19951;-81
2022/04/04 03:04:17;;;;;;;;;;;1.90;99.90;;;;;;5074068;28;19908;-84
2022/04/04 03:06:43;;;;;;;;;;;1.80;99.90;;;;;;5072758;28;19999;-83
2022/04/04 03:09:08;;;;;;;;;;;1.80;99.90;;;;;;5072752;28;20347;-80
2022/04/04 03:11:34;;;;;;;;;;;1.80;99.90;;;;;;5072666;28;19918;-83
2022/04/04 03:14:00;;;;;;;;;;;1.90;99.90;;;;;;5072665;28;19946;-82
2022/04/04 03:16:25;;;;;;;;;;;2.00;99.90;;;;;;5072584;28;19908;-82
2022/04/04 03:18:54;;;;;;;;;;;1.80;99.90;;;;;;5084567;28;19920;-81
2022/04/04 03:21:20;;;;;;;;;;;1.70;99.90;;;;;;5075019;28;20292;-83
2022/04/04 03:23:45;;;;;;;;;;;1.70;99.90;;;;;;5094097;28;19916;-82
2022/04/04 03:26:11;;;;;;;;;;;1.80;99.90;;;;;;5094020;28;19908;-82
2022/04/04 03:28:38;;;;;;;;;;;2.00;99.90;;;;;;5093948;28;20369;-84
2022/04/04 03:31:07;;;;;;;;;;;1.80;99.90;;;;;;5093948;28;19908;-82
2022/04/04 03:33:33;;;;;;;;;;;1.80;99.90;;;;;;5075797;28;19908;-83
2022/04/04 03:35:59;;;;;;;;;;;1.90;99.90;;;;;;5093830;28;19948;-82
2022/04/04 03:38:25;;;;;;;;;;;1.90;99.90;;;;;;5093855;28;19950;-82
2022/04/04 03:40:51;;;;;;;;;;;1.80;99.90;;;;;;5075576;28;20322;-82
2022/04/04 03:43:17;;;;;;;;;;;1.50;99.90;;;;;;5075661;28;19966;-81
2022/04/04 03:45:43;;;;;;;;;;;1.70;99.90;;;;;;5093869;28;20276;-82
2022/04/04 03:48:09;;;;;;;;;;;1.80;99.90;;;;;;5093794;28;19931;-82
2022/04/04 03:50:35;;;;;;;;;;;1.70;99.90;;;;;;5094167;28;19908;-82
2022/04/04 03:53:01;;;;;;;;;;;1.50;99.90;;;;;;5092344;28;19908;-82
2022/04/04 03:55:31;;;;;;;;;;;1.40;99.90;;;;;;5093599;28;19913;-85
2022/04/04 03:57:58;;;;;;;;;;;1.40;99.90;;;;;;5093806;28;19912;-84
2022/04/04 04:00:24;;;;;;;;;;;1.30;99.90;;;;;;5093519;28;19912;-83
2022/04/04 04:02:50;;;;;;;;;;;1.30;99.90;;;;;;5093755;28;19915;-81
2022/04/04 04:05:15;;;;;;;;;;;1.30;99.90;;;;;;5075429;28;19909;-82
2022/04/04 04:07:41;;;;;;;;;;;1.40;99.90;;;;;;5093687;28;19909;-83
2022/04/04 04:10:26;;;;;;;;;;;1.30;99.90;;;;;;5093569;28;19916;-83
2022/04/04 04:12:51;;;;;;;;;;;1.30;99.90;;;;;;5093536;28;19909;-83
2022/04/04 04:15:21;;;;;;;;;;;1.40;99.90;;;;;;5093458;28;19998;-84
2022/04/04 04:17:51;;;;;;;;;;;1.30;99.90;;;;;;5075111;28;19912;-83
2022/04/04 04:20:23;;;;;;;;;;;1.30;99.90;;;;;;5074990;28;19916;-83
2022/04/04 04:22:50;;;;;;;;;;;1.40;99.90;;;;;;5093725;28;20284;-83
2022/04/04 04:25:16;;;;;;;;;;;1.50;99.90;;;;;;5093760;28;19908;-81
2022/04/04 04:27:42;;;;;;;;;;;1.60;99.90;;;;;;5075259;28;19908;-82
2022/04/04 04:30:08;;;;;;;;;;;1.60;99.90;;;;;;5093417;28;19961;-84
2022/04/04 04:32:34;;;;;;;;;;;1.60;99.90;;;;;;5077740;28;19911;-84
2022/04/04 04:34:59;;;;;;;;;;;1.60;99.90;;;;;;5097209;28;19908;-83
2022/04/04 04:37:25;;;;;;;;;;;1.50;99.90;;;;;;5078863;28;19912;-83
2022/04/04 04:39:51;;;;;;;;;;;1.50;99.90;;;;;;5097246;28;19912;-84
2022/04/04 04:42:16;;;;;;;;;;;1.50;99.90;;;;;;5078775;28;19912;-82
2022/04/04 04:44:43;;;;;;;;;;;1.40;99.90;;;;;;5078813;28;19990;-82
2022/04/04 04:47:09;;;;;;;;;;;1.40;99.90;;;;;;5097135;28;19955;-83
2022/04/04 04:49:34;;;;;;;;;;;1.50;99.90;;;;;;5095606;28;19915;-84
2022/04/04 04:52:00;;;;;;;;;;;1.20;99.90;;;;;;5096860;28;19909;-83
2022/04/04 04:54:26;;;;;;;;;;;1.20;99.90;;;;;;5096715;28;19908;-82
2022/04/04 04:56:52;;;;;;;;;;;1.10;99.90;;;;;;5096803;28;20364;-81
2022/04/04 04:59:17;;;;;;;;;;;0.90;99.90;;;;;;5096612;28;19933;-84
2022/04/04 05:01:43;;;;;;;;;;;0.90;99.90;;;;;;5096846;28;19911;-83
2022/04/04 05:04:09;;;;;;;;;;;0.90;99.90;;;;;;5078410;28;19915;-82
2022/04/04 05:06:34;;;;;;;;;;;0.90;99.90;;;;;;5096665;28;19995;-81
2022/04/04 05:09:00;;;;;;;;;;;0.90;99.90;;;;;;5096950;28;19931;-84
2022/04/04 05:11:26;;;;;;;;;;;1.00;99.90;;;;;;5096440;28;19998;-83
2022/04/04 05:13:52;;;;;;;;;;;1.20;99.90;;;;;;5096789;28;19908;-83
2022/04/04 05:16:18;;;;;;;;;;;1.30;99.90;;;;;;5096311;28;19908;-81
2022/04/04 05:18:44;;;;;;;;;;;1.00;99.90;;;;;;5074481;28;19924;-81
2022/04/04 05:21:11;;;;;;;;;;;1.00;99.90;;;;;;5075997;28;20353;-83
2022/04/04 05:23:37;;;;;;;;;;;1.00;99.90;;;;;;5076117;28;19931;-81
2022/04/04 05:26:03;;;;;;;;;;;1.30;99.90;;;;;;5075963;28;20361;-82
2022/04/04 05:28:29;;;;;;;;;;;1.20;99.90;;;;;;5074930;28;19916;-81
2022/04/04 05:30:55;;;;;;;;;;;1.20;99.90;;;;;;5075962;28;19908;-83
2022/04/04 05:33:20;;;;;;;;;;;1.20;99.90;;;;;;5075820;28;20373;-82
2022/04/04 05:35:46;;;;;;;;;;;1.20;99.90;;;;;;5074524;28;19960;-83
2022/04/04 05:38:13;;;;;;;;;;;1.00;99.90;;;;;;5075978;28;19912;-82
2022/04/04 05:40:38;;;;;;;;;;;1.00;99.90;;;;;;5075853;28;19975;-84
2022/04/04 05:43:04;;;;;;;;;;;1.00;99.90;;;;;;5074870;28;20381;-83
2022/04/04 05:45:30;;;;;;;;;;;1.00;99.90;;;;;;5074263;28;19943;-81
2022/04/04 05:47:55;;;;;;;;;;;0.90;99.90;;;;;;5074270;28;19957;-83
2022/04/04 05:50:21;;;;;;;;;;;1.00;99.90;;;;;;5074196;28;20258;-83
2022/04/04 05:52:46;;;;;;;;;;;1.20;99.90;;;;;;5075620;28;19932;-83
2022/04/04 05:55:13;;;;;;;;;;;1.20;99.90;;;;;;5075358;28;19915;-82
2022/04/04 05:57:39;;;;;;;;;;;1.50;99.90;;;;;;5074306;28;19916;-84
2022/04/04 06:00:08;;;;;;;;;;;1.60;99.90;;;;;;5075114;28;20265;-82
2022/04/04 06:02:35;;;;;;;;;;;1.70;99.90;;;;;;5073621;28;19908;-84
2022/04/04 06:05:01;;;;;;;;;;;1.70;99.90;;;;;;5075162;28;19915;-84
2022/04/04 06:07:27;;;;;;;;;;;1.70;99.90;;;;;;5075366;28;19912;-82
2022/04/04 06:09:52;;;;;;;;;;;1.80;99.90;;;;;;5075367;28;19931;-83
2022/04/04 06:12:18;;;;;;;;;;;1.70;99.90;;;;;;5075114;28;19909;-82
2022/04/04 06:14:43;;;;;;;;;;;1.90;99.90;;;;;;5075008;28;19908;-84
2022/04/04 06:17:09;;;;;;;;;;;1.90;99.90;;;;;;5074944;28;19915;-84
2022/04/04 06:19:35;;;;;;;;;;;2.10;99.90;;;;;;5091482;28;19924;-84
2022/04/04 06:22:01;;;;;;;;;;;2.10;99.90;;;;;;5076923;28;19908;-84
2022/04/04 06:24:27;;;;;;;;;;;2.20;99.90;;;;;;5095076;28;19916;-82
2022/04/04 06:26:52;;;;;;;;;;;2.80;99.90;;;;;;5095027;28;19909;-85
2022/04/04 06:29:18;;;;;;;;;;;3.50;99.90;;;;;;5095003;28;19909;-82
2022/04/04 06:31:46;;;;;;;;;;;3.40;99.90;;;;;;5076782;28;19908;-83
2022/04/04 06:34:11;;;;;;;;;;;4.20;99.90;;;;;;5095467;28;19916;-83
2022/04/04 06:36:40;;;;;;;;;;;4.50;98.50;;;;;;5094811;28;19911;-82
2022/04/04 06:39:06;;;;;;;;;;;4.40;98.20;;;;;;5094800;28;19908;-84
2022/04/04 06:41:32;;;;;;;;;;;3.80;99.60;;;;;;5094660;28;19912;-82
2022/04/04 06:43:58;;;;;;;;;;;3.80;99.80;;;;;;5094712;28;19962;-84
2022/04/04 06:46:24;;;;;;;;;;;4.00;99.90;;;;;;5094650;28;20352;-84
2022/04/04 06:48:51;;;;;;;;;;;5.00;98.90;;;;;;5094577;28;19908;-85
2022/04/04 06:51:17;;;;;;;;;;;4.60;97.20;;;;;;5094537;28;19999;-82
2022/04/04 06:53:42;;;;;;;;;;;4.70;97.60;;;;;;5094537;28;19953;-83
2022/04/04 06:56:08;;;;;;;;;;;5.10;96.70;;;;;;5094329;28;19911;-84
2022/04/04 06:58:34;;;;;;;;;;;5.60;96.40;;;;;;5076281;28;19973;-85
2022/04/04 07:01:01;;;;;;;;;;;7.40;93.30;;;;;;5076141;28;20038;-84
2022/04/04 07:03:27;;;;;;;;;;;7.70;90.00;;;;;;5094463;28;19908;-83
2022/04/04 07:05:52;;;;;;;;;;;8.30;90.10;;;;;;5094438;28;19953;-83
2022/04/04 07:08:18;;;;;;;;;;;8.10;85.60;;;;;;5094239;28;20314;-82
2022/04/04 07:10:43;;;;;;;;;;;8.20;87.80;;;;;;5076070;28;19923;-84
2022/04/04 07:13:09;;;;;;;;;;;8.30;87.00;;;;;;5094181;28;19991;-85
2022/04/04 07:15:35;;;;;;;;;;;8.00;87.00;;;;;;5094201;28;19915;-83
2022/04/04 07:18:01;;;;;;;;;;;7.30;88.30;;;;;;5072404;28;19923;-82
2022/04/04 07:20:26;;;;;;;;;;;6.50;91.90;;;;;;5074236;28;19922;-83
2022/04/04 07:22:52;;;;;;;;;;;6.60;91.50;;;;;;5073898;28;19908;-83
2022/04/04 07:25:17;;;;;;;;;;;6.90;91.50;;;;;;5073843;28;19912;-86
2022/04/04 07:27:45;;;;;;;;;;;6.80;92.30;;;;;;5072443;28;19909;-84
2022/04/04 07:30:16;;;;;;;;;;;7.30;91.80;;;;;;5073973;28;19909;-84
2022/04/04 07:32:42;;;;;;;;;;;7.40;91.50;;;;;;5073926;28;19909;-82
2022/04/04 07:35:10;;;;;;;;;;;7.60;90.40;;;;;;5072666;28;19919;-82
2022/04/04 07:37:35;;;;;;;;;;;8.20;90.10;;;;;;5073663;28;20293;-84
2022/04/04 07:40:01;;;;;;;;;;;8.20;90.20;;;;;;5072227;28;19912;-82
2022/04/04 07:42:27;;;;;;;;;;;8.70;89.30;;;;;;5073784;28;20343;-84
2022/04/04 07:44:52;;;;;;;;;;;9.00;89.00;;;;;;5072272;28;19958;-84
2022/04/04 07:47:18;;;;;;;;;;;9.10;87.90;;;;;;5073642;28;20297;-85
2022/04/04 07:49:44;;;;;;;;;;;9.60;86.40;;;;;;5073559;28;19938;-84
2022/04/04 07:52:10;;;;;;;;;;;10.30;83.80;;;;;;5073796;28;19915;-82
2022/04/04 07:54:35;;;;;;;;;;;10.00;84.80;;;;;;5073676;28;20377;-83
2022/04/04 07:57:01;;;;;;;;;;;9.50;84.90;;;;;;5072164;28;19951;-85
2022/04/04 07:59:26;;;;;;;;;;;8.90;86.90;;;;;;5073421;28;20304;-83
2022/04/04 08:01:52;;;;;;;;;;;8.90;88.90;;;;;;5072160;28;19940;-84
2022/04/04 08:04:18;;;;;;;;;;;7.80;90.60;;;;;;5073513;28;19908;-82
2022/04/04 08:06:43;;;;;;;;;;;8.50;91.00;;;;;;5074649;28;19912;-85
2022/04/04 08:09:09;;;;;;;;;;;9.90;88.00;;;;;;5077421;28;20269;-84
2022/04/04 08:11:35;;;;;;;;;;;9.10;86.20;;;;;;5075903;28;19909;-85
2022/04/04 08:14:00;;;;;;;;;;;9.70;86.40;;;;;;5077606;28;19915;-83
2022/04/04 08:16:26;;;;;;;;;;;10.00;86.70;;;;;;5077412;28;20260;-83
2022/04/04 08:18:55;;;;;;;;;;;10.00;85.50;;;;;;5087967;28;19962;-83
2022/04/04 08:21:20;;;;;;;;;;;9.60;85.50;;;;;;5097351;28;19912;-83
2022/04/04 08:23:46;;;;;;;;;;;11.30;83.30;;;;;;5097659;28;20368;-85
2022/04/04 08:26:12;;;;;;;;;;;13.30;75.70;;;;;;5097397;28;19908;-83
2022/04/04 08:28:37;;;;;;;;;;;11.70;76.40;;;;;;5097374;28;19965;-83
2022/04/04 08:31:03;;;;;;;;;;;10.90;78.80;;;;;;5097282;28;20363;-84
2022/04/04 08:33:29;;;;;;;;;;;9.90;81.80;;;;;;5097278;28;19912;-84
2022/04/04 08:35:56;;;;;;;;;;;9.90;83.00;;;;;;5097205;28;20360;-83
2022/04/04 08:38:21;;;;;;;;;;;9.80;83.20;;;;;;5078970;28;20015;-82
2022/04/04 08:40:48;;;;;;;;;;;9.80;84.80;;;;;;5097023;28;20387;-83
2022/04/04 08:43:15;;;;;;;;;;;9.80;82.60;;;;;;5078787;28;19909;-83
2022/04/04 08:45:42;;;;;;;;;;;9.70;82.60;;;;;;5097000;28;19931;-82
2022/04/04 08:48:08;;;;;;;;;;;10.60;81.80;;;;;;5096943;28;19942;-84
2022/04/04 08:50:35;;;;;;;;;;;11.30;80.10;;;;;;5096975;28;19908;-85
2022/04/04 08:53:02;;;;;;;;;;;12.60;76.60;;;;;;5096822;28;19908;-83
2022/04/04 08:55:28;;;;;;;;;;;12.70;74.50;;;;;;5096748;28;19912;-85
2022/04/04 08:57:55;;;;;;;;;;;12.60;72.50;;;;;;5078562;28;19908;-84
2022/04/04 09:00:21;;;;;;;;;;;12.40;72.30;;;;;;5096779;28;19995;-85
2022/04/04 09:03:03;;;;;;;;;;;12.80;70.90;;;;;;5096655;28;20484;-83
2022/04/04 09:05:32;;;;;;;;;;;13.00;68.30;;;;;;5096595;28;20061;-85
2022/04/04 09:08:05;;;;;;;;;;;11.70;71.70;;;;;;5096683;28;19989;-85
2022/04/04 09:10:34;;;;;;;;;;;11.80;71.90;;;;;;5096500;28;19908;-85
2022/04/04 09:13:06;;;;;;;;;;;11.50;72.30;;;;;;5096489;28;19949;-85
2022/04/04 09:15:50;;;;;;;;;;;11.00;73.80;;;;;;5096596;28;19916;-85
2022/04/04 09:18:15;;;;;;;;;;;10.80;74.10;;;;;;5073347;28;20046;-84
2022/04/04 09:20:48;;;;;;;;;;;10.50;74.30;;;;;;5075994;28;19964;-85
2022/04/04 09:23:14;;;;;;;;;;;9.90;74.80;;;;;;5076056;28;20277;-84
2022/04/04 09:25:40;;;;;;;;;;;10.40;76.90;;;;;;5074693;28;20380;-84
2022/04/04 09:28:16;;;;;;;;;;;10.70;75.40;;;;;;5074610;28;19916;-84
2022/04/04 09:30:42;;;;;;;;;;;11.10;75.00;;;;;;5075926;28;19916;-83
2022/04/04 09:33:12;;;;;;;;;;;10.50;74.80;;;;;;5074591;28;19912;-83
2022/04/04 09:35:44;;;;;;;;;;;10.40;74.10;;;;;;5076367;28;20360;-84
2022/04/04 09:38:13;;;;;;;;;;;11.10;76.10;;;;;;5075799;28;19995;-83
2022/04/04 09:40:39;;;;;;;;;;;11.30;73.90;;;;;;5075580;28;19916;-84
2022/04/04 09:43:06;;;;;;;;;;;11.90;71.50;;;;;;5075734;28;19915;-84
2022/04/04 09:45:31;;;;;;;;;;;12.60;71.30;;;;;;5074321;28;19909;-84
2022/04/04 09:48:04;;;;;;;;;;;13.50;69.20;;;;;;5074257;28;19918;-83
2022/04/04 09:50:31;;;;;;;;;;;13.10;68.30;;;;;;5075494;28;19913;-84
2022/04/04 09:52:57;;;;;;;;;;;13.60;67.70;;;;;;5075514;28;19958;-85
2022/04/04 09:55:30;;;;;;;;;;;14.00;66.10;;;;;;5075396;28;19995;-83
2022/04/04 09:58:00;;;;;;;;;;;13.70;67.90;;;;;;5075393;28;19909;-85
2022/04/04 10:00:26;;;;;;;;;;;14.10;66.10;;;;;;5075265;28;19965;-83
2022/04/04 10:02:53;;;;;;;;;;;14.60;67.80;;;;;;5075465;28;19908;-83
2022/04/04 10:05:19;;;;;;;;;;;14.70;65.80;;;;;;5075153;28;20046;-83
2022/04/04 10:07:45;;;;;;;;;;;15.00;64.30;;;;;;5075401;28;19939;-83
2022/04/04 10:10:11;;;;;;;;;;;13.50;65.30;;;;;;5075209;28;19908;-84
2022/04/04 10:12:37;;;;;;;;;;;13.00;67.80;;;;;;5075196;28;19909;-83
2022/04/04 10:15:05;;;;;;;;;;;12.90;68.00;;;;;;5073686;28;19915;-84
2022/04/04 10:17:31;;;;;;;;;;;12.60;68.30;;;;;;5075221;28;19909;-83
2022/04/04 10:19:57;;;;;;;;;;;12.30;68.60;;;;;;5094532;28;19920;-84
2022/04/04 10:22:24;;;;;;;;;;;12.70;69.20;;;;;;5095251;28;20280;-83
2022/04/04 10:24:50;;;;;;;;;;;12.50;69.60;;;;;;5095062;28;19947;-83
2022/04/04 10:27:20;;;;;;;;;;;13.90;67.00;;;;;;5095091;28;19954;-85
2022/04/04 10:29:47;;;;;;;;;;;15.40;62.70;;;;;;5094677;28;19915;-84
2022/04/04 10:32:28;;;;;;;;;;;15.50;61.80;;;;;;5076746;28;20007;-84
2022/04/04 10:34:55;;;;;;;;;;;15.50;63.60;;;;;;5095156;28;19999;-84
2022/04/04 10:37:25;;;;;;;;;;;15.60;58.90;;;;;;5095005;28;19909;-84
2022/04/04 10:39:50;;;;;;;;;;;16.00;59.10;;;;;;5094823;28;20257;-82
2022/04/04 10:42:38;;;;;;;;;;;15.50;60.10;;;;;;5094763;28;19958;-83
2022/04/04 10:45:07;;;;;;;;;;;16.70;58.10;;;;;;5095117;28;19915;-83
2022/04/04 10:47:33;;;;;;;;;;;15.50;57.60;;;;;;5094648;28;19915;-83
2022/04/04 10:50:17;;;;;;;;;;;16.40;57.80;;;;;;5094689;28;19924;-84
2022/04/04 10:52:43;;;;;;;;;;;14.90;58.20;;;;;;5094542;28;19909;-85
2022/04/04 10:55:27;;;;;;;;;;;15.10;59.30;;;;;;5094627;28;20018;-84
2022/04/04 10:58:00;;;;;;;;;;;15.10;59.50;;;;;;5076253;28;20371;-84
2022/04/04 11:00:52;;;;;;;;;;;14.40;60.20;;;;;;5094390;28;19961;-83
2022/04/04 11:03:44;;;;;;;;;;;14.20;61.80;;;;;;5094514;28;19957;-85
2022/04/04 11:09:15;;;;;;;;;;;13.50;62.90;;;;;;5094517;28;20003;-84
2022/04/04 11:11:52;;;;;;;;;;;13.60;63.10;;;;;;5094389;28;20419;-83
2022/04/04 11:14:42;;;;;;;;;;;13.60;62.70;;;;;;5094244;28;20348;-83
2022/04/04 11:17:17;;;;;;;;;;;13.40;63.00;;;;;;5094423;28;20318;-82
2022/04/04 11:19:46;;;;;;;;;;;13.10;62.20;;;;;;5072385;28;19921;-84
2022/04/04 11:22:17;;;;;;;;;;;13.30;62.80;;;;;;5074109;28;19908;-83
2022/04/04 11:24:43;;;;;;;;;;;12.80;64.50;;;;;;5073862;28;19916;-82
2022/04/04 11:27:10;;;;;;;;;;;13.00;64.20;;;;;;5074021;28;19915;-84
2022/04/04 11:29:39;;;;;;;;;;;12.90;64.10;;;;;;5073761;28;19908;-84
2022/04/04 11:32:07;;;;;;;;;;;12.50;65.00;;;;;;5074228;28;20003;-83
2022/04/04 11:34:36;;;;;;;;;;;12.90;65.80;;;;;;5074185;28;20045;-84
2022/04/04 11:37:01;;;;;;;;;;;12.60;65.10;;;;;;5072380;28;19908;-84
2022/04/04 11:39:27;;;;;;;;;;;12.70;65.50;;;;;;5072323;28;19912;-83
2022/04/04 11:41:53;;;;;;;;;;;12.80;65.40;;;;;;5072917;28;20403;-84
2022/04/04 11:44:24;;;;;;;;;;;13.10;65.20;;;;;;5073847;28;20364;-83
2022/04/04 11:47:01;;;;;;;;;;;13.40;64.40;;;;;;5073582;28;19916;-84
2022/04/04 11:49:31;;;;;;;;;;;13.90;65.30;;;;;;5072240;28;19908;-85
2022/04/04 11:52:02;;;;;;;;;;;13.40;64.30;;;;;;5073578;28;19916;-83
2022/04/04 11:54:29;;;;;;;;;;;13.50;64.00;;;;;;5071996;28;20003;-85
2022/04/04 11:56:57;;;;;;;;;;;13.90;65.00;;;;;;5072227;28;19908;-84
2022/04/04 11:59:23;;;;;;;;;;;14.00;64.10;;;;;;5073436;28;19915;-83
2022/04/04 12:01:49;;;;;;;;;;;14.20;63.80;;;;;;5073791;28;19909;-83
2022/04/04 12:04:15;;;;;;;;;;;13.50;64.00;;;;;;5073617;28;19992;-83
2022/04/04 12:06:41;;;;;;;;;;;13.90;64.30;;;;;;5073559;28;19908;-84
2022/04/04 12:09:10;;;;;;;;;;;14.60;61.90;;;;;;5073456;28;20353;-83
2022/04/04 12:11:36;;;;;;;;;;;14.10;62.60;;;;;;5072142;28;19909;-83
2022/04/04 12:14:02;;;;;;;;;;;13.90;64.00;;;;;;5072085;28;19934;-83
2022/04/04 12:16:27;;;;;;;;;;;14.90;62.80;;;;;;5073362;28;19958;-84
2022/04/04 12:18:54;;;;;;;;;;;14.60;62.70;;;;;;5084002;28;19927;-84
2022/04/04 12:21:23;;;;;;;;;;;14.40;62.80;;;;;;5093444;28;19969;-84
2022/04/04 12:26:35;;;;;;;;;;;13.50;64.50;;;;;;5093623;28;19916;-83
2022/04/04 12:29:00;;;;;;;;;;;13.10;64.50;;;;;;5093384;28;19908;-82
2022/04/04 12:31:27;;;;;;;;;;;12.60;66.60;;;;;;5093563;28;20250;-82
2022/04/04 12:34:06;;;;;;;;;;;12.40;66.40;;;;;;5075184;28;19908;-83
2022/04/04 12:36:35;;;;;;;;;;;12.50;67.10;;;;;;5075175;28;19908;-84
2022/04/04 12:39:01;;;;;;;;;;;12.40;67.40;;;;;;5075188;28;19909;-85
2022/04/04 12:41:27;;;;;;;;;;;12.20;68.40;;;;;;5093188;28;19919;-84
2022/04/04 12:44:06;;;;;;;;;;;12.50;68.70;;;;;;5093252;28;20008;-84
2022/04/04 12:46:33;;;;;;;;;;;12.00;67.50;;;;;;5093202;28;20365;-84
2022/04/04 12:49:09;;;;;;;;;;;12.40;68.00;;;;;;5093215;28;19995;-86
2022/04/04 12:51:35;;;;;;;;;;;12.80;67.40;;;;;;5093402;28;19908;-83
2022/04/04 12:54:00;;;;;;;;;;;12.80;67.40;;;;;;5096430;28;19940;-84
2022/04/04 12:56:31;;;;;;;;;;;12.30;68.10;;;;;;5096846;28;19908;-84
2022/04/04 12:59:10;;;;;;;;;;;11.90;69.40;;;;;;5096803;28;19908;-83
2022/04/04 13:01:36;;;;;;;;;;;11.50;69.30;;;;;;5096728;28;19912;-84
2022/04/04 13:04:07;;;;;;;;;;;11.20;70.50;;;;;;5096828;28;20428;-84
2022/04/04 13:06:33;;;;;;;;;;;11.20;71.20;;;;;;5096766;28;19951;-82
2022/04/04 13:09:00;;;;;;;;;;;11.70;71.50;;;;;;5078360;28;19958;-82
2022/04/04 13:11:26;;;;;;;;;;;11.90;72.20;;;;;;5096766;28;19908;-82
2022/04/04 13:14:05;;;;;;;;;;;11.60;73.10;;;;;;5096662;28;19955;-84
2022/04/04 13:16:31;;;;;;;;;;;11.70;74.20;;;;;;5078293;28;20253;-82
2022/04/04 13:18:57;;;;;;;;;;;12.00;74.10;;;;;;5096319;28;19920;-84
2022/04/04 13:21:23;;;;;;;;;;;11.70;73.50;;;;;;5096249;28;19947;-84
2022/04/04 13:23:48;;;;;;;;;;;11.70;73.90;;;;;;5096328;28;19947;-83
2022/04/04 13:26:14;;;;;;;;;;;11.70;75.80;;;;;;5096224;28;19908;-82
2022/04/04 13:28:40;;;;;;;;;;;11.60;76.60;;;;;;5096196;28;19999;-85
2022/04/04 13:31:05;;;;;;;;;;;11.80;76.20;;;;;;5096325;28;19908;-83
2022/04/04 13:33:31;;;;;;;;;;;11.90;74.30;;;;;;5096112;28;19957;-84
2022/04/04 13:35:56;;;;;;;;;;;12.00;75.30;;;;;;5077884;28;20012;-82
2022/04/04 13:38:23;;;;;;;;;;;11.80;75.60;;;;;;5096485;28;19916;-83
2022/04/04 13:40:48;;;;;;;;;;;11.60;75.50;;;;;;5095850;28;19967;-83
2022/04/04 13:43:14;;;;;;;;;;;11.40;75.60;;;;;;5077816;28;20377;-84
2022/04/04 13:45:40;;;;;;;;;;;11.50;76.30;;;;;;5095907;28;19908;-84
2022/04/04 13:48:06;;;;;;;;;;;12.00;75.10;;;;;;5077682;28;19908;-84
2022/04/04 13:50:32;;;;;;;;;;;12.40;73.90;;;;;;5096108;28;20069;-83
2022/04/04 13:52:57;;;;;;;;;;;12.90;73.10;;;;;;5095954;28;19919;-84
2022/04/04 13:55:23;;;;;;;;;;;12.90;73.00;;;;;;5095636;28;20417;-84
2022/04/04 13:57:49;;;;;;;;;;;12.70;74.10;;;;;;5095682;28;19908;-84
2022/04/04 14:00:15;;;;;;;;;;;12.40;73.90;;;;;;5077400;28;19912;-84
2022/04/04 14:02:43;;;;;;;;;;;12.00;73.80;;;;;;5095656;28;19947;-82
2022/04/04 14:05:13;;;;;;;;;;;12.10;74.50;;;;;;5094790;28;20372;-83
2022/04/04 14:07:39;;;;;;;;;;;12.10;75.70;;;;;;5077302;28;20419;-82
2022/04/04 14:10:05;;;;;;;;;;;12.00;75.40;;;;;;5095611;28;19950;-84
2022/04/04 14:12:31;;;;;;;;;;;12.10;75.20;;;;;;5077186;28;19987;-85
2022/04/04 14:14:57;;;;;;;;;;;11.90;75.90;;;;;;5095374;28;19908;-82
2022/04/04 14:17:23;;;;;;;;;;;12.00;75.70;;;;;;5095334;28;20395;-83
2022/04/04 14:19:49;;;;;;;;;;;11.80;76.60;;;;;;5094750;28;19924;-83
2022/04/04 14:22:16;;;;;;;;;;;11.90;75.40;;;;;;5095179;28;19908;-82
2022/04/04 14:24:41;;;;;;;;;;;11.90;75.10;;;;;;5095170;28;20010;-85
2022/04/04 14:27:07;;;;;;;;;;;11.50;76.40;;;;;;5095033;28;19939;-84
2022/04/04 14:29:32;;;;;;;;;;;11.60;77.80;;;;;;5095059;28;19908;-83